Time;durP1;ratioP1;P1;durP2;ratioP2;P2;SDS_P1;SDS_P2;PMS_P1;PMS_P2;Temp;Humidity;BMP_temperature;BMP_pressure;BME280_temperature;BME280_humidity;BME280_pressure;Samples;Min_cycle;Max_cycle;Signal;HPM_P1;HPM_P2
2021/07/04 00:00:21;;;;;;;12.48;10.30;;;;;;;;;;5075261;28;20033;-73
2021/07/04 00:02:46;;;;;;;11.68;8.63;;;;;;;;;;5086051;28;20328;-73
2021/07/04 00:05:15;;;;;;;12.82;9.15;;;;;;;;;;5078974;28;20491;-73
2021/07/04 00:07:42;;;;;;;10.60;8.77;;;;;;;;;;5076289;28;20161;-73
2021/07/04 00:10:15;;;;;;;10.00;8.40;;;;;;;;;;5076461;28;20464;-73
2021/07/04 00:13:03;;;;;;;12.38;9.05;;;;;;;;;;5086068;28;20058;-73
2021/07/04 00:15:34;;;;;;;12.43;9.48;;;;;;;;;;5094795;28;20095;-73
2021/07/04 00:17:59;;;;;;;15.65;9.85;;;;;;;;;;5094665;28;20051;-73
2021/07/04 00:20:29;;;;;;;11.65;10.05;;;;;;;;;;5079225;28;20056;-73
2021/07/04 00:22:55;;;;;;;13.50;9.90;;;;;;;;;;5094447;28;20387;-73
2021/07/04 00:25:22;;;;;;;11.23;9.57;;;;;;;;;;5094679;28;20020;-74
2021/07/04 00:27:49;;;;;;;11.10;8.75;;;;;;;;;;5093713;28;20040;-73
2021/07/04 00:30:16;;;;;;;12.55;9.02;;;;;;;;;;5094526;28;20024;-73
2021/07/04 00:32:42;;;;;;;10.48;7.78;;;;;;;;;;5083115;28;20111;-73
2021/07/04 00:35:29;;;;;;;10.27;8.00;;;;;;;;;;5073552;28;20039;-73
2021/07/04 00:37:55;;;;;;;10.43;7.18;;;;;;;;;;5073307;28;20032;-73
2021/07/04 00:40:21;;;;;;;10.98;8.10;;;;;;;;;;5073120;28;20020;-73
2021/07/04 00:42:47;;;;;;;10.85;8.13;;;;;;;;;;5092630;28;20078;-73
2021/07/04 00:45:20;;;;;;;9.43;8.43;;;;;;;;;;5091457;28;20396;-74
2021/07/04 00:47:46;;;;;;;10.03;8.00;;;;;;;;;;5094279;28;20051;-73
2021/07/04 00:50:28;;;;;;;8.60;7.60;;;;;;;;;;5088486;28;20082;-73
2021/07/04 00:52:55;;;;;;;12.95;8.43;;;;;;;;;;5073621;28;20023;-73
2021/07/04 00:55:21;;;;;;;10.05;7.70;;;;;;;;;;5073203;28;20073;-73
2021/07/04 00:57:47;;;;;;;11.80;7.72;;;;;;;;;;5073033;28;20048;-73
2021/07/04 01:00:15;;;;;;;11.13;8.10;;;;;;;;;;5084193;28;20056;-73
2021/07/04 01:02:42;;;;;;;14.27;8.02;;;;;;;;;;5082315;28;20088;-73
2021/07/04 01:05:38;;;;;;;10.93;7.43;;;;;;;;;;5092041;28;20471;-73
2021/07/04 01:08:05;;;;;;;13.25;8.32;;;;;;;;;;5092781;28;20012;-73
2021/07/04 01:10:32;;;;;;;9.57;7.35;;;;;;;;;;5088064;28;20045;-73
2021/07/04 01:13:02;;;;;;;9.52;7.25;;;;;;;;;;5072585;28;20058;-73
2021/07/04 01:15:28;;;;;;;12.75;7.38;;;;;;;;;;5081831;28;20113;-73
2021/07/04 01:18:03;;;;;;;9.77;7.35;;;;;;;;;;5092572;28;20032;-73
2021/07/04 01:20:38;;;;;;;10.55;6.57;;;;;;;;;;5093437;28;20027;-75
2021/07/04 01:23:13;;;;;;;12.75;7.03;;;;;;;;;;5093123;28;20028;-75
2021/07/04 01:25:51;;;;;;;8.50;6.53;;;;;;;;;;5093338;28;20058;-74
2021/07/04 01:28:17;;;;;;;9.63;7.20;;;;;;;;;;5092520;28;20486;-74
2021/07/04 01:30:45;;;;;;;10.25;7.20;;;;;;;;;;5093481;28;20024;-74
2021/07/04 01:33:10;;;;;;;9.18;7.10;;;;;;;;;;5079485;28;20480;-74
2021/07/04 01:35:37;;;;;;;9.10;6.72;;;;;;;;;;5073186;28;20074;-75
2021/07/04 01:38:03;;;;;;;12.57;7.03;;;;;;;;;;5072762;28;20491;-74
2021/07/04 01:40:30;;;;;;;9.90;7.07;;;;;;;;;;5073036;28;20024;-74
2021/07/04 01:42:57;;;;;;;14.43;7.57;;;;;;;;;;5072112;28;20062;-74
2021/07/04 01:45:23;;;;;;;8.82;7.28;;;;;;;;;;5085090;28;20118;-74
2021/07/04 01:47:49;;;;;;;10.98;7.78;;;;;;;;;;5091263;28;20120;-74
2021/07/04 01:50:18;;;;;;;12.35;8.75;;;;;;;;;;5082867;28;20028;-74
2021/07/04 01:52:44;;;;;;;13.38;8.75;;;;;;;;;;5078621;28;20032;-74
2021/07/04 01:55:12;;;;;;;11.98;8.90;;;;;;;;;;5092153;28;20097;-75
2021/07/04 01:57:37;;;;;;;14.68;9.43;;;;;;;;;;5092205;28;20110;-74
2021/07/04 02:00:08;;;;;;;11.20;9.52;;;;;;;;;;5090779;28;20116;-74
2021/07/04 02:02:34;;;;;;;14.27;10.48;;;;;;;;;;5091443;28;20062;-74
2021/07/04 02:04:59;;;;;;;15.13;10.88;;;;;;;;;;5092220;28;20020;-74
2021/07/04 02:07:25;;;;;;;14.10;9.93;;;;;;;;;;5095251;28;20111;-75
2021/07/04 02:09:51;;;;;;;15.57;11.65;;;;;;;;;;5096873;28;20020;-74
2021/07/04 02:12:18;;;;;;;17.73;12.13;;;;;;;;;;5097398;28;20023;-74
2021/07/04 02:14:56;;;;;;;18.45;12.30;;;;;;;;;;5097145;28;20020;-74
2021/07/04 02:17:21;;;;;;;16.02;12.80;;;;;;;;;;5095467;28;20024;-73
2021/07/04 02:19:47;;;;;;;20.17;13.35;;;;;;;;;;5088493;28;20051;-74
2021/07/04 02:22:12;;;;;;;17.02;12.95;;;;;;;;;;5080605;28;20048;-74
2021/07/04 02:24:38;;;;;;;20.00;12.93;;;;;;;;;;5096855;28;20028;-74
2021/07/04 02:27:06;;;;;;;19.10;12.15;;;;;;;;;;5096422;28;20031;-75
2021/07/04 02:29:39;;;;;;;17.92;12.10;;;;;;;;;;5090219;28;20033;-74
2021/07/04 02:32:06;;;;;;;17.75;11.63;;;;;;;;;;5073901;28;20133;-74
2021/07/04 02:34:32;;;;;;;18.17;12.07;;;;;;;;;;5075716;28;20024;-75
2021/07/04 02:37:00;;;;;;;14.57;11.85;;;;;;;;;;5095213;28;20157;-75
2021/07/04 02:39:25;;;;;;;19.80;12.85;;;;;;;;;;5095275;28;20021;-74
2021/07/04 02:41:51;;;;;;;19.02;13.10;;;;;;;;;;5095073;28;20376;-75
2021/07/04 02:44:17;;;;;;;16.70;12.88;;;;;;;;;;5095346;28;20062;-75
2021/07/04 02:46:42;;;;;;;18.48;13.15;;;;;;;;;;5095248;28;20024;-75
2021/07/04 02:49:08;;;;;;;18.17;14.30;;;;;;;;;;5070209;28;20412;-75
2021/07/04 02:51:34;;;;;;;20.27;14.57;;;;;;;;;;5095069;28;20471;-75
2021/07/04 02:53:59;;;;;;;21.67;13.95;;;;;;;;;;5093226;28;20084;-75
2021/07/04 02:56:25;;;;;;;20.92;13.85;;;;;;;;;;5093560;28;20437;-75
2021/07/04 02:58:50;;;;;;;20.75;13.70;;;;;;;;;;5094502;28;20028;-75
2021/07/04 03:01:19;;;;;;;18.70;13.65;;;;;;;;;;5095112;28;20039;-75
2021/07/04 03:03:44;;;;;;;21.65;13.23;;;;;;;;;;5091584;28;20031;-75
2021/07/04 03:06:15;;;;;;;20.15;12.57;;;;;;;;;;5074680;28;20021;-75
2021/07/04 03:08:43;;;;;;;19.15;12.73;;;;;;;;;;5086392;28;20059;-75
2021/07/04 03:11:10;;;;;;;22.88;13.23;;;;;;;;;;5075581;28;20024;-75
2021/07/04 03:13:35;;;;;;;18.33;13.25;;;;;;;;;;5087987;28;20024;-75
2021/07/04 03:16:01;;;;;;;18.58;13.05;;;;;;;;;;5094871;28;20028;-75
2021/07/04 03:18:26;;;;;;;24.77;15.07;;;;;;;;;;5092218;28;20024;-75
2021/07/04 03:21:11;;;;;;;26.83;16.38;;;;;;;;;;5093135;28;20027;-75
2021/07/04 03:23:37;;;;;;;29.25;17.15;;;;;;;;;;5092697;28;20023;-75
2021/07/04 03:26:02;;;;;;;29.35;17.00;;;;;;;;;;5093348;28;20032;-75
2021/07/04 03:28:39;;;;;;;30.90;18.80;;;;;;;;;;5054780;28;1144364;-75
2021/07/04 03:31:05;;;;;;;39.67;22.35;;;;;;;;;;5094381;28;20042;-75
2021/07/04 03:33:31;;;;;;;30.20;20.50;;;;;;;;;;5094358;28;20107;-75
2021/07/04 03:35:57;;;;;;;28.30;20.50;;;;;;;;;;5075250;28;20016;-75
2021/07/04 03:38:22;;;;;;;26.52;17.60;;;;;;;;;;5093080;28;20031;-75
2021/07/04 03:40:54;;;;;;;28.63;17.63;;;;;;;;;;5079090;28;20067;-75
2021/07/04 03:43:20;;;;;;;26.13;17.40;;;;;;;;;;5074027;28;20066;-75
2021/07/04 03:45:45;;;;;;;26.90;17.63;;;;;;;;;;5073480;28;20082;-75
2021/07/04 03:48:12;;;;;;;24.92;18.00;;;;;;;;;;5073218;28;20031;-75
2021/07/04 03:50:37;;;;;;;28.95;18.92;;;;;;;;;;5081264;28;20063;-75
2021/07/04 03:53:03;;;;;;;24.88;18.55;;;;;;;;;;5078513;28;20069;-75
2021/07/04 03:55:29;;;;;;;26.02;17.48;;;;;;;;;;5055662;28;20033;-75
2021/07/04 03:57:56;;;;;;;24.27;17.02;;;;;;;;;;5078904;28;20027;-75
2021/07/04 04:00:22;;;;;;;22.48;16.42;;;;;;;;;;5094362;28;20032;-75
2021/07/04 04:02:48;;;;;;;21.95;16.27;;;;;;;;;;5076986;28;20020;-75
2021/07/04 04:05:14;;;;;;;19.45;13.60;;;;;;;;;;5095205;28;20024;-75
2021/07/04 04:07:41;;;;;;;14.73;12.40;;;;;;;;;;5094241;28;20128;-75
2021/07/04 04:10:09;;;;;;;12.10;10.13;;;;;;;;;;5076485;28;20027;-75
2021/07/04 04:12:35;;;;;;;11.98;10.30;;;;;;;;;;5094059;28;20468;-75
2021/07/04 04:15:00;;;;;;;12.60;9.60;;;;;;;;;;5073977;28;20094;-75
2021/07/04 04:17:27;;;;;;;13.20;10.10;;;;;;;;;;5081075;28;20075;-75
2021/07/04 04:19:53;;;;;;;9.60;8.30;;;;;;;;;;5077445;28;20115;-75
2021/07/04 04:22:19;;;;;;;9.43;7.80;;;;;;;;;;5085064;28;20111;-74
2021/07/04 04:24:45;;;;;;;9.40;7.85;;;;;;;;;;5086575;28;20081;-75
2021/07/04 04:27:10;;;;;;;8.48;7.18;;;;;;;;;;5094351;28;20020;-74
2021/07/04 04:29:59;;;;;;;9.15;6.38;;;;;;;;;;5079933;28;20036;-74
2021/07/04 04:32:25;;;;;;;8.63;6.75;;;;;;;;;;5074186;28;20040;-74
2021/07/04 04:34:50;;;;;;;7.95;6.15;;;;;;;;;;5074173;28;20491;-75
2021/07/04 04:37:29;;;;;;;9.48;6.40;;;;;;;;;;5074084;28;20063;-75
2021/07/04 04:39:55;;;;;;;7.03;5.97;;;;;;;;;;5073348;28;20027;-75
2021/07/04 04:42:20;;;;;;;6.40;5.65;;;;;;;;;;5073218;28;20020;-75
2021/07/04 04:44:59;;;;;;;6.18;5.50;;;;;;;;;;5087885;28;20080;-75
2021/07/04 04:47:24;;;;;;;7.00;5.38;;;;;;;;;;5093727;28;20033;-75
2021/07/04 04:49:51;;;;;;;7.63;5.93;;;;;;;;;;5092314;28;20042;-75
2021/07/04 04:52:17;;;;;;;7.63;5.03;;;;;;;;;;5092232;28;20020;-75
2021/07/04 04:54:43;;;;;;;6.75;4.70;;;;;;;;;;5091931;28;20027;-75
2021/07/04 04:57:08;;;;;;;6.13;4.88;;;;;;;;;;5092488;28;20020;-74
2021/07/04 04:59:35;;;;;;;6.93;4.15;;;;;;;;;;5093765;28;20024;-75
2021/07/04 05:02:06;;;;;;;7.55;4.47;;;;;;;;;;5082708;28;20391;-75
2021/07/04 05:04:33;;;;;;;5.38;4.15;;;;;;;;;;5073407;28;20024;-74
2021/07/04 05:06:58;;;;;;;6.53;4.20;;;;;;;;;;5073105;28;20107;-74
2021/07/04 05:09:24;;;;;;;5.53;4.03;;;;;;;;;;5087457;28;20380;-72
2021/07/04 05:11:51;;;;;;;7.07;3.97;;;;;;;;;;5091789;28;20050;-74
2021/07/04 05:14:17;;;;;;;7.68;4.10;;;;;;;;;;5083887;28;20054;-72
2021/07/04 05:16:44;;;;;;;5.97;3.72;;;;;;;;;;5076310;28;20460;-72
2021/07/04 05:19:11;;;;;;;7.03;4.50;;;;;;;;;;5092668;28;20020;-70
2021/07/04 05:21:40;;;;;;;6.95;3.95;;;;;;;;;;5092278;28;20066;-70
2021/07/04 05:24:07;;;;;;;6.05;3.55;;;;;;;;;;5081686;28;20070;-70
2021/07/04 05:26:32;;;;;;;7.82;3.83;;;;;;;;;;5072430;28;20028;-70
2021/07/04 05:29:03;;;;;;;5.38;4.00;;;;;;;;;;5077472;28;20069;-72
2021/07/04 05:31:29;;;;;;;6.40;3.63;;;;;;;;;;5086926;28;20031;-71
2021/07/04 05:33:54;;;;;;;6.93;3.60;;;;;;;;;;5071629;28;20029;-71
2021/07/04 05:36:20;;;;;;;4.75;3.42;;;;;;;;;;5071854;28;20056;-71
2021/07/04 05:38:45;;;;;;;6.13;3.42;;;;;;;;;;5083713;28;20032;-71
2021/07/04 05:41:12;;;;;;;5.97;3.90;;;;;;;;;;5092013;28;20442;-71
2021/07/04 05:43:45;;;;;;;6.65;3.72;;;;;;;;;;5089829;28;20032;-71
2021/07/04 05:46:11;;;;;;;4.20;3.45;;;;;;;;;;5091892;28;20075;-71
2021/07/04 05:48:52;;;;;;;5.85;3.70;;;;;;;;;;5087449;28;20063;-71
2021/07/04 05:51:17;;;;;;;4.80;2.92;;;;;;;;;;5068739;28;20024;-74
2021/07/04 05:53:43;;;;;;;4.60;3.38;;;;;;;;;;5081114;28;20506;-74
2021/07/04 05:56:09;;;;;;;9.95;3.30;;;;;;;;;;5091949;28;20027;-74
2021/07/04 05:58:34;;;;;;;4.68;2.75;;;;;;;;;;5073429;28;20495;-74
2021/07/04 06:00:59;;;;;;;7.25;3.20;;;;;;;;;;5090526;28;20028;-74
2021/07/04 06:03:32;;;;;;;6.65;3.20;;;;;;;;;;5091360;28;20024;-74
2021/07/04 06:05:57;;;;;;;4.22;2.97;;;;;;;;;;5091421;28;20475;-74
2021/07/04 06:08:23;;;;;;;5.65;2.85;;;;;;;;;;5091729;28;20115;-74
2021/07/04 06:10:51;;;;;;;5.78;3.33;;;;;;;;;;5091559;28;20154;-74
2021/07/04 06:13:18;;;;;;;4.10;3.05;;;;;;;;;;5090772;28;20024;-75
2021/07/04 06:15:43;;;;;;;5.93;3.03;;;;;;;;;;5091064;28;20031;-74
2021/07/04 06:18:12;;;;;;;5.03;3.35;;;;;;;;;;5091467;28;20032;-74
2021/07/04 06:20:37;;;;;;;7.28;3.47;;;;;;;;;;5091132;28;20035;-74
2021/07/04 06:23:02;;;;;;;4.55;3.03;;;;;;;;;;5090389;28;20028;-74
2021/07/04 06:25:31;;;;;;;5.47;2.97;;;;;;;;;;5073455;28;20380;-74
2021/07/04 06:27:58;;;;;;;5.00;3.05;;;;;;;;;;5071141;28;20480;-75
2021/07/04 06:30:23;;;;;;;5.18;3.20;;;;;;;;;;5071325;28;20150;-75
2021/07/04 06:32:49;;;;;;;6.60;3.38;;;;;;;;;;5082457;28;20035;-75
2021/07/04 06:35:15;;;;;;;5.18;3.17;;;;;;;;;;5071067;28;20035;-75
2021/07/04 06:37:41;;;;;;;3.60;3.08;;;;;;;;;;5091701;28;20540;-75
2021/07/04 06:40:08;;;;;;;4.47;3.10;;;;;;;;;;5085279;28;20032;-75
2021/07/04 06:42:36;;;;;;;4.55;2.85;;;;;;;;;;5091308;28;20111;-74
2021/07/04 06:45:04;;;;;;;4.90;3.17;;;;;;;;;;5071927;28;20036;-74
2021/07/04 06:47:30;;;;;;;6.97;3.38;;;;;;;;;;5072854;28;20100;-75
2021/07/04 06:49:55;;;;;;;4.68;3.08;;;;;;;;;;5091140;28;20424;-75
2021/07/04 06:52:21;;;;;;;7.13;3.20;;;;;;;;;;5091327;28;20043;-75
2021/07/04 06:54:47;;;;;;;4.05;3.00;;;;;;;;;;5082301;28;20027;-75
2021/07/04 06:57:27;;;;;;;5.70;3.15;;;;;;;;;;5090684;28;20375;-75
2021/07/04 07:00:00;;;;;;;4.07;3.03;;;;;;;;;;5094175;28;20031;-74
2021/07/04 07:02:31;;;;;;;7.85;3.03;;;;;;;;;;5083220;28;20019;-75
2021/07/04 07:04:57;;;;;;;5.38;2.35;;;;;;;;;;5076759;28;20070;-75
2021/07/04 07:07:23;;;;;;;6.25;2.70;;;;;;;;;;5089698;28;20047;-76
2021/07/04 07:09:49;;;;;;;4.22;2.65;;;;;;;;;;5091083;28;20032;-76
2021/07/04 07:12:14;;;;;;;3.88;2.42;;;;;;;;;;5096016;28;20369;-76
2021/07/04 07:15:01;;;;;;;3.53;2.80;;;;;;;;;;5094569;28;20031;-74
2021/07/04 07:17:26;;;;;;;5.07;2.75;;;;;;;;;;5075197;28;20021;-76
2021/07/04 07:19:53;;;;;;;4.07;2.67;;;;;;;;;;5082594;28;20537;-76
2021/07/04 07:22:20;;;;;;;5.45;3.05;;;;;;;;;;5082717;28;20031;-76
2021/07/04 07:24:46;;;;;;;7.45;2.72;;;;;;;;;;5093095;28;20032;-76
2021/07/04 07:27:12;;;;;;;3.85;2.10;;;;;;;;;;5095851;28;20084;-75
2021/07/04 07:29:39;;;;;;;2.95;2.20;;;;;;;;;;5090232;28;20032;-76
2021/07/04 07:32:05;;;;;;;5.78;2.42;;;;;;;;;;5077963;28;20499;-76
2021/07/04 07:35:00;;;;;;;4.18;2.40;;;;;;;;;;5075876;28;20052;-76
2021/07/04 07:37:27;;;;;;;5.25;2.50;;;;;;;;;;5076073;28;20375;-75
2021/07/04 07:39:52;;;;;;;5.30;2.40;;;;;;;;;;5080155;28;20098;-75
2021/07/04 07:42:24;;;;;;;4.57;2.60;;;;;;;;;;5095685;28;20043;-77
2021/07/04 07:44:49;;;;;;;9.90;2.28;;;;;;;;;;5095797;28;20038;-74
2021/07/04 07:47:14;;;;;;;8.07;2.60;;;;;;;;;;5082393;28;20024;-74
2021/07/04 07:49:45;;;;;;;7.57;2.33;;;;;;;;;;5094050;28;20016;-75
2021/07/04 07:52:10;;;;;;;3.17;2.33;;;;;;;;;;5095232;28;20439;-74
2021/07/04 07:54:37;;;;;;;4.50;2.22;;;;;;;;;;5091947;28;20074;-74
2021/07/04 07:57:03;;;;;;;4.57;2.70;;;;;;;;;;5055363;28;20016;-74
2021/07/04 07:59:30;;;;;;;3.67;2.30;;;;;;;;;;5092776;28;20490;-75
2021/07/04 08:01:56;;;;;;;5.88;2.58;;;;;;;;;;5081099;28;20392;-74
2021/07/04 08:04:22;;;;;;;4.43;2.13;;;;;;;;;;5079979;28;20028;-75
2021/07/04 08:06:47;;;;;;;5.07;2.50;;;;;;;;;;5083927;28;20116;-75
2021/07/04 08:09:12;;;;;;;4.03;2.65;;;;;;;;;;5090547;28;20479;-74
2021/07/04 08:11:40;;;;;;;3.55;2.10;;;;;;;;;;5093085;28;20488;-74
2021/07/04 08:14:06;;;;;;;5.20;2.80;;;;;;;;;;5093513;28;20035;-74
2021/07/04 08:16:32;;;;;;;4.82;2.53;;;;;;;;;;5095047;28;20028;-74
2021/07/04 08:18:57;;;;;;;5.07;2.28;;;;;;;;;;5093391;28;20391;-75
2021/07/04 08:21:23;;;;;;;3.53;2.35;;;;;;;;;;5088014;28;20070;-74
2021/07/04 08:23:49;;;;;;;3.58;2.20;;;;;;;;;;5077472;28;20066;-74
2021/07/04 08:26:16;;;;;;;3.40;2.22;;;;;;;;;;5091550;28;20065;-75
2021/07/04 08:28:41;;;;;;;3.63;2.33;;;;;;;;;;5092963;28;20138;-74
2021/07/04 08:31:07;;;;;;;4.88;2.53;;;;;;;;;;5089708;28;20447;-74
2021/07/04 08:33:33;;;;;;;4.07;2.30;;;;;;;;;;5083013;28;20426;-75
2021/07/04 08:35:58;;;;;;;2.83;2.22;;;;;;;;;;5080866;28;20024;-75
2021/07/04 08:38:29;;;;;;;6.40;2.47;;;;;;;;;;5077243;28;20039;-74
2021/07/04 08:40:55;;;;;;;3.33;2.20;;;;;;;;;;5085716;28;20449;-75
2021/07/04 08:43:29;;;;;;;4.35;2.28;;;;;;;;;;5090821;28;20031;-75
2021/07/04 08:46:05;;;;;;;4.65;2.40;;;;;;;;;;5079387;28;20027;-75
2021/07/04 08:48:33;;;;;;;5.80;2.22;;;;;;;;;;5073061;28;20492;-76
2021/07/04 08:51:00;;;;;;;3.28;2.10;;;;;;;;;;5073377;28;20023;-75
2021/07/04 08:53:27;;;;;;;3.20;1.80;;;;;;;;;;5073694;28;20036;-76
2021/07/04 08:55:53;;;;;;;3.67;2.20;;;;;;;;;;5073646;28;20056;-77
2021/07/04 08:58:23;;;;;;;4.88;2.40;;;;;;;;;;5080195;28;20048;-75
2021/07/04 09:01:14;;;;;;;5.20;2.38;;;;;;;;;;5087271;28;20020;-77
2021/07/04 09:03:46;;;;;;;4.78;2.25;;;;;;;;;;5071373;28;20032;-75
2021/07/04 09:06:13;;;;;;;5.72;2.10;;;;;;;;;;5089255;28;20039;-72
2021/07/04 09:08:38;;;;;;;3.35;2.20;;;;;;;;;;5093265;28;20464;-72
2021/07/04 09:11:16;;;;;;;4.95;2.40;;;;;;;;;;5092476;28;20027;-72
2021/07/04 09:13:45;;;;;;;4.72;2.30;;;;;;;;;;5089498;28;20028;-72
2021/07/04 09:16:15;;;;;;;4.20;2.10;;;;;;;;;;5087464;28;20027;-73
2021/07/04 09:18:41;;;;;;;3.92;2.30;;;;;;;;;;5073811;28;20020;-72
2021/07/04 09:21:27;;;;;;;3.88;2.17;;;;;;;;;;5073583;28;20021;-72
2021/07/04 09:23:53;;;;;;;5.63;2.55;;;;;;;;;;5073443;28;20468;-71
2021/07/04 09:26:39;;;;;;;4.00;2.35;;;;;;;;;;5090274;28;20026;-73
2021/07/04 09:29:15;;;;;;;4.15;2.20;;;;;;;;;;5084671;28;20036;-72
2021/07/04 09:31:41;;;;;;;4.60;2.20;;;;;;;;;;5088426;28;20027;-72
2021/07/04 09:34:11;;;;;;;5.80;2.35;;;;;;;;;;5090914;28;20024;-72
2021/07/04 09:36:40;;;;;;;6.28;2.30;;;;;;;;;;5092488;28;20452;-72
2021/07/04 09:39:17;;;;;;;3.47;2.08;;;;;;;;;;5090681;28;20119;-73
2021/07/04 09:42:09;;;;;;;3.08;2.05;;;;;;;;;;5090858;28;20518;-73
2021/07/04 09:44:37;;;;;;;7.63;2.47;;;;;;;;;;5077181;28;20020;-72
2021/07/04 09:47:14;;;;;;;5.05;2.45;;;;;;;;;;5073115;28;20052;-80
2021/07/04 09:49:40;;;;;;;4.28;2.85;;;;;;;;;;5073613;28;20067;-79
2021/07/04 09:52:33;;;;;;;6.30;2.55;;;;;;;;;;5079751;28;20131;-79
2021/07/04 09:55:01;;;;;;;4.97;2.50;;;;;;;;;;5087273;28;20044;-80
2021/07/04 09:57:28;;;;;;;5.53;2.70;;;;;;;;;;5092318;28;20063;-79
2021/07/04 10:00:15;;;;;;;4.50;2.97;;;;;;;;;;5083797;28;20024;-79
2021/07/04 10:02:41;;;;;;;5.13;2.53;;;;;;;;;;5090361;28;20028;-79
2021/07/04 10:05:14;;;;;;;5.43;2.97;;;;;;;;;;5091172;28;20035;-79
2021/07/04 10:07:48;;;;;;;;;;;;;;;;;;5094212;28;20375;-80
2021/07/04 10:10:15;;;;;;;5.15;2.70;;;;;;;;;;5094079;28;20423;-80
2021/07/04 10:12:40;;;;;;;5.10;2.92;;;;;;;;;;5088825;28;20463;-78
2021/07/04 10:15:06;;;;;;;4.85;2.70;;;;;;;;;;5092164;28;20016;-79
2021/07/04 10:17:32;;;;;;;3.75;2.70;;;;;;;;;;5073733;28;20020;-79
2021/07/04 10:20:00;;;;;;;5.63;2.70;;;;;;;;;;5092533;28;20077;-78
2021/07/04 10:22:35;;;;;;;3.33;2.63;;;;;;;;;;5068134;28;20024;-79
2021/07/04 10:25:07;;;;;;;6.30;3.10;;;;;;;;;;5072768;28;20023;-78
2021/07/04 10:27:38;;;;;;;6.88;3.10;;;;;;;;;;5085086;28;20527;-79
2021/07/04 10:30:05;;;;;;;6.28;2.95;;;;;;;;;;5094420;28;20020;-80
2021/07/04 10:32:32;;;;;;;3.85;2.60;;;;;;;;;;5089839;28;20031;-79
2021/07/04 10:35:09;;;;;;;4.90;2.95;;;;;;;;;;5097380;28;20073;-79
2021/07/04 10:37:38;;;;;;;5.60;2.90;;;;;;;;;;5097251;28;20020;-79
2021/07/04 10:40:19;;;;;;;4.45;2.85;;;;;;;;;;5083025;28;20035;-78
2021/07/04 10:42:46;;;;;;;4.25;3.00;;;;;;;;;;5076668;28;20051;-79
2021/07/04 10:45:31;;;;;;;3.75;2.60;;;;;;;;;;5076777;28;20024;-79
2021/07/04 10:48:31;;;;;;;3.30;2.90;;;;;;;;;;5076625;28;20016;-78
2021/07/04 10:51:13;;;;;;;4.38;2.80;;;;;;;;;;5087613;28;20035;-79
2021/07/04 10:53:46;;;;;;;4.50;3.03;;;;;;;;;;5096194;28;20024;-80
2021/07/04 10:56:33;;;;;;;7.28;2.95;;;;;;;;;;5094713;28;20039;-78
2021/07/04 10:59:19;;;;;;;5.60;2.85;;;;;;;;;;5090627;28;20432;-80
2021/07/04 11:01:55;;;;;;;5.93;2.70;;;;;;;;;;5084917;28;20199;-80
2021/07/04 11:04:31;;;;;;;6.35;2.95;;;;;;;;;;5093844;28;20657;-80
2021/07/04 11:07:04;;;;;;;3.20;2.75;;;;;;;;;;5091091;28;20032;-75
2021/07/04 11:09:57;;;;;;;3.85;2.63;;;;;;;;;;5091460;28;20015;-76
2021/07/04 11:12:27;;;;;;;3.95;2.60;;;;;;;;;;5076840;28;20028;-75
2021/07/04 11:15:14;;;;;;;5.00;3.00;;;;;;;;;;5090085;28;20065;-76
2021/07/04 11:17:55;;;;;;;3.53;2.70;;;;;;;;;;5077116;28;20479;-75
2021/07/04 11:20:44;;;;;;;8.00;2.92;;;;;;;;;;5095651;28;20094;-76
2021/07/04 11:23:16;;;;;;;5.82;2.88;;;;;;;;;;5094749;28;20015;-75
2021/07/04 11:25:47;;;;;;;4.10;3.00;;;;;;;;;;5095776;28;20020;-77
2021/07/04 11:28:18;;;;;;;3.55;3.03;;;;;;;;;;5095603;28;20048;-76
2021/07/04 11:30:49;;;;;;;3.53;2.90;;;;;;;;;;5095781;28;20027;-76
2021/07/04 11:33:36;;;;;;;7.60;3.40;;;;;;;;;;5072816;28;20031;-77
2021/07/04 11:36:13;;;;;;;4.63;3.22;;;;;;;;;;5074748;28;20398;-75
2021/07/04 11:38:40;;;;;;;5.43;3.10;;;;;;;;;;5083249;28;20387;-75
2021/07/04 11:41:09;;;;;;;5.13;2.83;;;;;;;;;;5093676;28;20024;-75
2021/07/04 11:43:38;;;;;;;6.65;3.30;;;;;;;;;;5094006;28;20067;-75
2021/07/04 11:46:05;;;;;;;8.02;3.22;;;;;;;;;;5093632;28;20020;-75
2021/07/04 11:49:03;;;;;;;4.68;3.00;;;;;;;;;;5093726;28;20028;-74
2021/07/04 11:51:40;;;;;;;5.05;3.17;;;;;;;;;;5094071;28;20396;-77
2021/07/04 11:54:08;;;;;;;6.50;2.97;;;;;;;;;;5093670;28;20099;-76
2021/07/04 11:56:35;;;;;;;6.22;3.13;;;;;;;;;;5093603;28;20059;-75
2021/07/04 11:59:08;;;;;;;4.60;3.08;;;;;;;;;;5093642;28;20111;-74
2021/07/04 12:01:47;;;;;;;;;;;;;;;;;;5093738;28;20383;-74
2021/07/04 12:04:13;;;;;;;5.43;3.03;;;;;;;;;;5092987;28;20432;-75
2021/07/04 12:06:56;;;;;;;4.88;3.05;;;;;;;;;;5077262;28;20463;-75
2021/07/04 12:09:33;;;;;;;4.10;2.70;;;;;;;;;;5069729;28;20016;-75
2021/07/04 12:11:59;;;;;;;5.15;3.17;;;;;;;;;;5072712;28;20082;-75
2021/07/04 12:14:30;;;;;;;4.93;3.13;;;;;;;;;;5072821;28;20036;-75
2021/07/04 12:16:59;;;;;;;4.85;2.83;;;;;;;;;;5072927;28;20028;-75
2021/07/04 12:19:34;;;;;;;4.85;2.70;;;;;;;;;;5072898;28;20492;-75
2021/07/04 12:22:02;;;;;;;3.90;2.97;;;;;;;;;;5072609;28;20028;-75
2021/07/04 12:24:39;;;;;;;5.93;2.72;;;;;;;;;;5072632;28;20031;-75
2021/07/04 12:27:05;;;;;;;5.50;2.88;;;;;;;;;;5082386;28;20020;-76
2021/07/04 12:29:58;;;;;;;6.13;2.97;;;;;;;;;;5082868;28;20083;-72
2021/07/04 12:32:34;;;;;;;4.65;2.75;;;;;;;;;;5045203;28;20040;-71
2021/07/04 12:35:00;;;;;;;5.32;2.55;;;;;;;;;;5054826;28;20032;-73
2021/07/04 12:37:28;;;;;;;5.78;2.58;;;;;;;;;;5072096;28;20081;-73
2021/07/04 12:40:30;;;;;;;3.85;2.28;;;;;;;;;;5072135;28;20024;-73
2021/07/04 12:43:13;;;;;;;4.82;2.08;;;;;;;;;;5029104;28;20099;-72
2021/07/04 12:45:44;;;;;;;5.78;2.65;;;;;;;;;;5077114;28;20032;-73
2021/07/04 12:48:12;;;;;;;3.55;2.15;;;;;;;;;;5071730;28;20365;-72
2021/07/04 12:50:53;;;;;;;3.28;2.38;;;;;;;;;;5089344;28;20029;-72
2021/07/04 12:53:18;;;;;;;5.22;2.40;;;;;;;;;;5079926;28;20023;-72
2021/07/04 12:55:51;;;;;;;5.50;2.38;;;;;;;;;;5077057;28;20037;-72
2021/07/04 12:58:24;;;;;;;4.60;2.38;;;;;;;;;;5071770;28;20024;-72
2021/07/04 13:00:51;;;;;;;2.97;2.50;;;;;;;;;;5071553;28;20089;-72
2021/07/04 13:03:38;;;;;;;5.80;2.15;;;;;;;;;;5087879;28;20020;-72
2021/07/04 13:06:04;;;;;;;3.50;2.55;;;;;;;;;;5070901;28;20068;-72
2021/07/04 13:08:30;;;;;;;3.15;2.40;;;;;;;;;;5081849;28;20462;-73
2021/07/04 13:10:56;;;;;;;7.20;2.45;;;;;;;;;;5091584;28;20028;-73
2021/07/04 13:13:21;;;;;;;3.55;2.30;;;;;;;;;;5087886;28;20360;-71
2021/07/04 13:16:28;;;;;;;4.93;2.58;;;;;;;;;;5093764;28;20087;-72
2021/07/04 13:18:54;;;;;;;5.05;2.60;;;;;;;;;;5094311;28;20028;-72
2021/07/04 13:21:34;;;;;;;4.40;2.38;;;;;;;;;;5093726;28;20020;-71
2021/07/04 13:24:21;;;;;;;3.35;2.20;;;;;;;;;;5083022;28;20020;-71
2021/07/04 13:26:50;;;;;;;4.63;2.50;;;;;;;;;;5084911;28;20032;-71
2021/07/04 13:29:39;;;;;;;3.40;2.58;;;;;;;;;;5083313;28;20036;-71
2021/07/04 13:32:05;;;;;;;3.67;2.30;;;;;;;;;;5083993;28;20032;-71
2021/07/04 13:34:31;;;;;;;3.40;2.40;;;;;;;;;;5078425;28;20025;-71
2021/07/04 13:36:57;;;;;;;4.70;2.38;;;;;;;;;;5074327;28;20229;-71
2021/07/04 13:39:25;;;;;;;2.25;2.00;;;;;;;;;;5088539;28;20024;-71
2021/07/04 13:41:50;;;;;;;3.28;2.17;;;;;;;;;;5090797;28;20028;-71
2021/07/04 13:44:16;;;;;;;5.30;2.20;;;;;;;;;;5073785;28;20423;-71
2021/07/04 13:46:42;;;;;;;3.60;2.42;;;;;;;;;;5074224;28;20020;-71
2021/07/04 13:49:08;;;;;;;9.32;2.47;;;;;;;;;;5075877;28;20613;-71
2021/07/04 13:51:34;;;;;;;4.60;2.40;;;;;;;;;;5083990;28;20036;-72
2021/07/04 13:53:59;;;;;;;4.45;2.00;;;;;;;;;;5085432;28;20606;-71
2021/07/04 13:56:25;;;;;;;6.07;2.38;;;;;;;;;;5091197;28;20070;-72
2021/07/04 13:58:50;;;;;;;5.25;3.13;;;;;;;;;;5085753;28;20020;-70
2021/07/04 14:01:16;;;;;;;3.20;2.40;;;;;;;;;;5090068;28;20523;-71
2021/07/04 14:03:41;;;;;;;5.20;2.42;;;;;;;;;;5094708;28;20460;-74
2021/07/04 14:06:07;;;;;;;4.55;2.50;;;;;;;;;;5093988;28;20236;-74
2021/07/04 14:08:32;;;;;;;4.45;2.50;;;;;;;;;;5078833;28;20020;-74
2021/07/04 14:10:57;;;;;;;5.70;2.55;;;;;;;;;;5073984;28;20415;-74
2021/07/04 14:13:24;;;;;;;5.85;2.53;;;;;;;;;;5073765;28;20024;-74
2021/07/04 14:15:50;;;;;;;3.63;2.40;;;;;;;;;;5073662;28;20028;-74
2021/07/04 14:18:16;;;;;;;5.18;2.45;;;;;;;;;;5069288;28;20067;-74
2021/07/04 14:20:41;;;;;;;7.97;2.85;;;;;;;;;;5089486;28;20067;-74
2021/07/04 14:23:07;;;;;;;7.13;2.60;;;;;;;;;;5086559;28;20110;-74
2021/07/04 14:25:34;;;;;;;4.38;2.47;;;;;;;;;;5075055;28;20021;-74
2021/07/04 14:28:00;;;;;;;4.47;2.20;;;;;;;;;;5075028;28;20484;-74
2021/07/04 14:30:29;;;;;;;4.28;2.35;;;;;;;;;;5074626;28;20020;-73
2021/07/04 14:32:56;;;;;;;4.47;2.28;;;;;;;;;;5074894;28;20492;-74
2021/07/04 14:35:23;;;;;;;3.30;2.00;;;;;;;;;;5074779;28;20025;-74
2021/07/04 14:37:50;;;;;;;3.95;1.92;;;;;;;;;;5074663;28;20036;-74
2021/07/04 14:40:18;;;;;;;4.57;1.90;;;;;;;;;;5074634;28;20380;-74
2021/07/04 14:42:44;;;;;;;2.35;1.80;;;;;;;;;;5074777;28;20024;-74
2021/07/04 14:45:10;;;;;;;3.33;2.08;;;;;;;;;;5074690;28;20031;-74
2021/07/04 14:47:36;;;;;;;3.10;1.90;;;;;;;;;;5074396;28;20038;-74
2021/07/04 14:50:03;;;;;;;4.40;2.00;;;;;;;;;;5074642;28;20024;-75
2021/07/04 14:52:31;;;;;;;2.42;1.50;;;;;;;;;;5073334;28;20056;-74